Time;durP1;ratioP1;P1;durP2;ratioP2;P2;SDS_P1;SDS_P2;PMS_P1;PMS_P2;Temp;Humidity;BMP_temperature;BMP_pressure;BME280_temperature;BME280_humidity;BME280_pressure;Samples;Min_cycle;Max_cycle;Signal;HPM_P1;HPM_P2
2022/06/05 00:00:26;;;;;;;30.08;20.38;;;;;;;15.43;62.23;101938.50;4927742;28;119670;-77
2022/06/05 00:03:22;;;;;;;27.75;20.75;;;;;;;15.38;62.76;101939.06;4939969;28;119520;-78
2022/06/05 00:06:11;;;;;;;30.45;19.77;;;;;;;15.38;62.81;101939.06;4935748;28;119352;-78
2022/06/05 00:08:43;;;;;;;29.30;19.88;;;;;;;15.35;62.76;101935.22;4946848;28;119321;-78
2022/06/05 00:11:11;;;;;;;29.30;19.90;;;;;;;15.31;62.92;101940.13;4945184;28;119322;-77
2022/06/05 00:13:45;;;;;;;29.90;20.65;;;;;;;15.28;62.88;101941.78;4932170;28;119465;-77
2022/06/05 00:16:13;;;;;;;29.00;19.27;;;;;;;15.18;62.79;101920.88;4904820;28;119458;-77
2022/06/05 00:18:41;;;;;;;26.80;19.60;;;;;;;15.22;62.75;101932.56;4917745;28;119804;-77
2022/06/05 00:21:08;;;;;;;32.05;19.90;;;;;;;15.24;62.83;101938.41;4944414;28;120334;-78
2022/06/05 00:23:35;;;;;;;27.45;20.00;;;;;;;15.22;62.54;101937.31;4951156;28;119370;-77
2022/06/05 00:26:21;;;;;;;26.23;20.02;;;;;;;15.19;62.51;101933.47;4921198;28;120011;-78
2022/06/05 00:29:00;;;;;;;28.58;19.42;;;;;;;15.16;61.99;101939.91;4930364;28;120138;-77
2022/06/05 00:31:35;;;;;;;24.38;18.42;;;;;;;15.12;62.14;101933.69;4924296;28;119320;-77
2022/06/05 00:34:00;;;;;;;29.00;19.17;;;;;;;15.09;62.62;101940.13;4937442;28;120047;-78
2022/06/05 00:36:32;;;;;;;28.42;20.23;;;;;;;15.09;63.03;101944.91;4919768;28;119565;-77
2022/06/05 00:39:01;;;;;;;26.35;19.98;;;;;;;15.08;62.65;101944.13;4931168;28;119328;-78
2022/06/05 00:41:48;;;;;;;24.17;19.08;;;;;;;14.98;62.07;101939.78;4943480;28;119828;-77
2022/06/05 00:44:17;;;;;;;27.42;18.17;;;;;;;14.97;61.76;101938.22;4931824;28;121366;-78
2022/06/05 00:46:47;;;;;;;24.58;18.05;;;;;;;14.93;62.17;101937.59;4936491;28;119559;-78
2022/06/05 00:49:13;;;;;;;28.90;17.80;;;;;;;14.89;62.06;101936.94;4923336;28;119738;-77
2022/06/05 00:51:39;;;;;;;23.27;17.75;;;;;;;14.85;61.82;101931.53;4943496;28;120900;-79
2022/06/05 00:54:06;;;;;;;23.65;18.48;;;;;;;14.77;61.83;101918.44;4921911;28;123545;-77
2022/06/05 00:56:32;;;;;;;25.58;19.15;;;;;;;14.76;61.32;101916.91;4952350;28;119263;-77
2022/06/05 00:58:58;;;;;;;24.23;18.45;;;;;;;14.73;61.63;101916.56;4935252;28;121137;-78
2022/06/05 01:01:25;;;;;;;24.35;18.90;;;;;;;14.62;61.50;101910.66;4956853;28;119690;-78
2022/06/05 01:03:51;;;;;;;25.33;18.52;;;;;;;14.66;62.16;101919.56;4952573;28;119606;-78
2022/06/05 01:06:17;;;;;;;24.63;18.00;;;;;;;14.63;62.18;101905.91;4934555;28;120397;-77
2022/06/05 01:08:43;;;;;;;22.92;17.67;;;;;;;14.63;61.99;101908.66;4951411;28;119580;-76
2022/06/05 01:11:28;;;;;;;20.25;17.10;;;;;;;14.59;61.45;101908.78;4952552;28;119243;-78
2022/06/05 01:14:04;;;;;;;23.35;16.98;;;;;;;14.55;61.42;101910.91;4919295;28;123204;-78
2022/06/05 01:16:56;;;;;;;20.95;17.02;;;;;;;14.52;61.81;101914.56;4945645;28;119272;-78
2022/06/05 01:19:25;;;;;;;23.45;17.50;;;;;;;14.51;62.02;101921.31;4952420;28;119342;-78
2022/06/05 01:22:11;;;;;;;23.15;17.83;;;;;;;14.49;61.98;101923.75;4951598;28;120495;-77
2022/06/05 01:24:43;;;;;;;22.40;16.65;;;;;;;14.48;62.08;101922.22;4956371;28;119173;-77
2022/06/05 01:27:16;;;;;;;19.58;15.75;;;;;;;14.43;60.70;101914.47;4918131;28;120784;-78
2022/06/05 01:29:54;;;;;;;18.58;15.20;;;;;;;14.29;61.17;101901.91;4956146;28;119449;-78
2022/06/05 01:32:34;;;;;;;19.73;15.50;;;;;;;14.31;60.66;101920.78;4955221;28;119390;-77
2022/06/05 01:35:25;;;;;;;26.10;17.52;;;;;;;14.27;61.28;101915.38;4921613;28;121797;-78
2022/06/05 01:38:07;;;;;;;22.48;17.33;;;;;;;14.21;61.50;101914.41;4928721;28;119878;-79
2022/06/05 01:40:45;;;;;;;22.05;17.65;;;;;;;14.16;61.45;101909.44;4938340;28;119499;-78
2022/06/05 01:43:15;;;;;;;22.38;17.38;;;;;;;14.16;61.39;101908.66;4937613;28;119919;-78
2022/06/05 01:45:53;;;;;;;21.80;16.88;;;;;;;14.12;61.35;101904.03;4937669;28;119795;-78
2022/06/05 01:48:27;;;;;;;21.00;16.25;;;;;;;14.07;61.45;101895.56;4958918;28;119708;-77
2022/06/05 01:51:00;;;;;;;23.85;16.15;;;;;;;14.04;60.70;101891.72;4955005;28;119335;-77
2022/06/05 01:53:47;;;;;;;20.17;15.90;;;;;;;14.01;60.53;101891.84;4937628;28;119673;-78
2022/06/05 01:56:18;;;;;;;20.50;15.52;;;;;;;14.00;60.94;101890.28;4954864;28;119784;-77
2022/06/05 01:58:53;;;;;;;21.70;17.02;;;;;;;13.98;61.77;101898.25;4955054;28;119240;-78
2022/06/05 02:01:33;;;;;;;20.13;16.58;;;;;;;13.97;61.63;101903.00;4955338;28;119322;-77
2022/06/05 02:04:08;;;;;;;22.48;17.15;;;;;;;13.94;61.71;101892.81;4885406;28;121164;-77
2022/06/05 02:06:42;;;;;;;24.85;18.20;;;;;;;13.92;61.85;101892.50;4917945;28;119773;-77
2022/06/05 02:09:19;;;;;;;22.73;17.83;;;;;;;13.91;61.97;101882.69;4918535;28;119944;-77
2022/06/05 02:11:45;;;;;;;21.27;16.80;;;;;;;13.91;62.37;101881.91;4954933;28;119285;-77
2022/06/05 02:14:11;;;;;;;21.65;16.58;;;;;;;13.90;61.99;101878.38;4954578;28;119485;-78
2022/06/05 02:16:39;;;;;;;20.73;15.95;;;;;;;13.85;61.54;101862.41;4954830;28;119725;-79
2022/06/05 02:19:12;;;;;;;21.25;15.77;;;;;;;13.86;61.69;101854.91;4954561;28;119481;-79
2022/06/05 02:21:38;;;;;;;23.80;16.88;;;;;;;13.84;61.75;101858.09;4954798;28;119428;-78
2022/06/05 02:24:06;;;;;;;24.70;19.48;;;;;;;13.82;62.50;101850.28;4937020;28;119419;-78
2022/06/05 02:26:31;;;;;;;23.98;18.08;;;;;;;13.85;62.81;101856.88;4955116;28;119260;-77
2022/06/05 02:28:59;;;;;;;20.13;17.17;;;;;;;13.83;62.65;101842.75;4937758;28;119578;-79
2022/06/05 02:31:37;;;;;;;25.63;18.63;;;;;;;13.86;62.67;101850.16;4949033;28;120751;-77
2022/06/05 02:34:12;;;;;;;23.38;18.42;;;;;;;13.86;62.86;101847.38;4924864;28;119586;-77
2022/06/05 02:36:56;;;;;;;21.63;17.67;;;;;;;13.86;62.70;101841.88;4954575;28;119511;-78
2022/06/05 02:39:31;;;;;;;23.23;17.80;;;;;;;13.85;62.29;101836.81;4932689;28;120048;-78
2022/06/05 02:42:23;;;;;;;26.70;20.88;;;;;;;13.85;63.19;101842.31;4917482;28;120107;-76
2022/06/05 02:45:12;;;;;;;25.73;19.25;;;;;;;13.89;63.08;101852.00;4913501;28;120683;-77
2022/06/05 02:47:47;;;;;;;19.75;17.20;;;;;;;13.90;63.06;101848.03;4873123;28;119163;-78
2022/06/05 02:50:23;;;;;;;21.58;17.73;;;;;;;13.93;63.38;101844.38;4917679;28;119425;-78
2022/06/05 02:52:51;;;;;;;27.20;18.13;;;;;;;13.94;63.16;101839.66;4916711;28;121457;-78
2022/06/05 02:55:20;;;;;;;23.77;17.63;;;;;;;13.93;62.39;101847.16;4921259;28;120464;-78
2022/06/05 02:57:47;;;;;;;20.05;16.52;;;;;;;13.89;62.21;101829.94;4916925;28;119342;-77
2022/06/05 03:00:16;;;;;;;23.35;18.10;;;;;;;13.86;61.49;101841.09;4917645;28;119277;-77
2022/06/05 03:05:26;;;;;;;26.33;19.52;;;;;;;13.77;62.06;101845.31;4916617;28;119648;-77
2022/06/05 03:07:52;;;;;;;24.58;19.30;;;;;;;13.78;62.91;101835.84;4917557;28;119573;-78
2022/06/05 03:10:18;;;;;;;26.88;20.83;;;;;;;13.76;63.71;101835.50;4917646;28;119362;-77
2022/06/05 03:12:45;;;;;;;24.45;18.73;;;;;;;13.83;63.43;101840.78;4916333;28;119963;-77
2022/06/05 03:15:12;;;;;;;22.75;18.60;;;;;;;13.82;62.57;101830.19;4917352;28;119546;-77
2022/06/05 03:17:38;;;;;;;24.77;19.45;;;;;;;13.78;63.04;101832.31;4938515;28;119244;-78
2022/06/05 03:20:05;;;;;;;28.92;19.88;;;;;;;13.83;63.53;101842.75;4936392;28;120189;-78
2022/06/05 03:22:30;;;;;;;23.88;18.75;;;;;;;13.87;63.96;101851.69;4952610;28;119511;-77
2022/06/05 03:24:56;;;;;;;23.30;18.90;;;;;;;13.90;63.58;101850.78;4952863;28;119886;-79
2022/06/05 03:27:22;;;;;;;22.73;18.52;;;;;;;13.92;63.53;101851.13;4934229;28;119563;-78
2022/06/05 03:29:48;;;;;;;22.23;17.95;;;;;;;13.94;63.23;101843.16;4933865;28;119350;-77
2022/06/05 03:32:16;;;;;;;27.75;20.60;;;;;;;13.95;63.86;101839.19;4934641;28;121230;-77
2022/06/05 03:34:42;;;;;;;35.25;23.02;;;;;;;14.00;64.29;101846.16;4935766;28;119673;-78
2022/06/05 03:37:08;;;;;;;29.73;21.58;;;;;;;14.04;64.74;101853.09;4935911;28;119779;-78
2022/06/05 03:39:37;;;;;;;34.92;23.17;;;;;;;14.09;64.98;101854.50;4957685;28;120439;-78
2022/06/05 03:42:03;;;;;;;34.90;23.30;;;;;;;14.14;65.36;101856.69;4936408;28;119384;-78
2022/06/05 03:44:35;;;;;;;37.40;24.77;;;;;;;14.19;65.60;101861.63;4935661;28;120864;-77
2022/06/05 03:47:01;;;;;;;30.02;20.80;;;;;;;14.30;65.45;101866.81;4936066;28;119243;-78
2022/06/05 03:49:26;;;;;;;28.67;19.65;;;;;;;14.36;65.26;101865.78;4935855;28;119642;-78
2022/06/05 03:51:53;;;;;;;29.00;20.88;;;;;;;14.41;65.03;101861.66;4935389;28;120844;-77
2022/06/05 03:54:19;;;;;;;26.27;20.50;;;;;;;14.46;64.35;101863.13;4953172;28;119563;-77
2022/06/05 03:56:45;;;;;;;23.80;17.75;;;;;;;14.47;64.67;101850.88;4953590;28;119583;-77
2022/06/05 03:59:10;;;;;;;22.60;17.85;;;;;;;14.53;64.20;101855.38;4935310;28;120996;-78
2022/06/05 04:01:36;;;;;;;24.25;19.20;;;;;;;14.61;64.15;101853.09;4957581;28;119346;-77
2022/06/05 04:04:03;;;;;;;29.98;21.35;;;;;;;14.65;64.24;101862.03;4935146;28;119977;-78
2022/06/05 04:06:30;;;;;;;27.40;21.05;;;;;;;14.71;64.47;101863.78;4935563;28;119654;-78
2022/06/05 04:09:02;;;;;;;29.60;21.58;;;;;;;14.72;64.57;101857.03;4953461;28;119262;-77
2022/06/05 04:11:32;;;;;;;25.92;19.02;;;;;;;14.74;64.16;101862.88;4935154;28;122415;-77
2022/06/05 04:13:58;;;;;;;31.30;21.95;;;;;;;14.79;63.74;101860.75;4935602;28;119336;-78
2022/06/05 04:16:27;;;;;;;40.35;23.92;;;;;;;14.81;64.79;101855.53;4935900;28;119436;-78
2022/06/05 04:18:53;;;;;;;29.90;22.30;;;;;;;14.83;64.65;101844.81;4952220;28;119917;-77
2022/06/05 04:21:25;;;;;;;50.53;22.73;;;;;;;14.87;65.30;101842.69;4935645;28;119894;-77
2022/06/05 04:23:53;;;;;;;31.13;23.02;;;;;;;14.86;65.80;101852.97;4956418;28;119462;-77
2022/06/05 04:26:22;;;;;;;32.03;21.02;;;;;;;14.86;66.04;101850.19;4953016;28;119447;-79
2022/06/05 04:28:48;;;;;;;29.45;19.15;;;;;;;14.85;65.95;101853.41;4953281;28;119292;-77
2022/06/05 04:31:22;;;;;;;28.80;19.27;;;;;;;14.86;66.15;101846.66;4952582;28;119247;-77
2022/06/05 04:33:50;;;;;;;33.72;20.25;;;;;;;14.83;66.30;101845.59;4953091;28;119757;-77
2022/06/05 04:36:16;;;;;;;34.70;21.25;;;;;;;14.82;66.28;101832.22;4951960;28;120253;-76
2022/06/05 04:38:43;;;;;;;26.65;19.30;;;;;;;14.81;67.27;101814.88;4952394;28;120340;-78
2022/06/05 04:41:09;;;;;;;28.65;19.13;;;;;;;14.86;66.94;101813.53;4952838;28;119654;-77
2022/06/05 04:43:36;;;;;;;34.15;19.00;;;;;;;14.84;67.12;101811.22;4938818;28;120232;-78
2022/06/05 04:46:02;;;;;;;23.80;18.70;;;;;;;14.93;67.46;101818.78;4953144;28;119474;-78
2022/06/05 04:48:31;;;;;;;24.88;18.38;;;;;;;14.97;67.79;101822.94;4935449;28;119339;-78
2022/06/05 04:51:01;;;;;;;21.55;17.33;;;;;;;15.07;68.11;101821.00;4932990;28;122312;-78
2022/06/05 04:53:27;;;;;;;23.63;18.77;;;;;;;15.14;67.98;101812.44;4935140;28;119414;-78
2022/06/05 04:55:52;;;;;;;21.98;17.80;;;;;;;15.21;68.10;101814.91;4935383;28;119490;-77
2022/06/05 04:58:18;;;;;;;23.80;18.30;;;;;;;15.27;68.20;101815.84;4952506;28;119419;-78
2022/06/05 05:00:44;;;;;;;20.80;17.85;;;;;;;15.30;68.23;101805.88;4952851;28;119484;-78
2022/06/05 05:03:10;;;;;;;19.83;16.23;;;;;;;15.36;67.63;101804.06;4936056;28;119605;-78
2022/06/05 05:05:36;;;;;;;18.27;16.27;;;;;;;15.41;67.55;101811.78;4941845;28;122291;-77
2022/06/05 05:08:02;;;;;;;19.65;17.00;;;;;;;15.39;67.75;101800.41;4955962;28;119192;-78
2022/06/05 05:10:32;;;;;;;19.05;16.92;;;;;;;15.48;67.58;101817.00;4937494;28;119401;-77
2022/06/05 05:12:58;;;;;;;19.27;16.55;;;;;;;15.57;67.81;101813.47;4938043;28;119989;-78
2022/06/05 05:15:24;;;;;;;22.50;17.13;;;;;;;15.63;67.98;101812.47;4955858;28;119564;-77
2022/06/05 05:17:49;;;;;;;19.65;16.50;;;;;;;15.71;67.76;101826.00;4955124;28;119851;-78
2022/06/05 05:20:16;;;;;;;18.65;16.63;;;;;;;15.75;67.96;101819.09;4955740;28;119614;-78
2022/06/05 05:22:42;;;;;;;18.45;15.60;;;;;;;15.78;67.82;101807.09;4954178;28;119302;-77
2022/06/05 05:25:10;;;;;;;19.10;15.95;;;;;;;15.86;67.82;101805.59;4936750;28;120161;-77
2022/06/05 05:27:36;;;;;;;21.05;16.27;;;;;;;15.89;67.64;101790.84;4942194;28;119590;-77
2022/06/05 05:30:05;;;;;;;18.88;16.33;;;;;;;15.95;67.76;101788.97;4937671;28;120400;-77
2022/06/05 05:32:31;;;;;;;20.00;17.42;;;;;;;16.01;67.82;101782.81;4954703;28;119413;-77
2022/06/05 05:34:57;;;;;;;19.38;15.98;;;;;;;16.06;67.85;101782.97;4937874;28;119942;-78
2022/06/05 05:37:22;;;;;;;19.45;15.88;;;;;;;16.12;67.75;101780.38;4937104;28;119948;-78
2022/06/05 05:42:33;;;;;;;22.67;16.80;;;;;;;16.20;67.86;101776.06;4955230;28;119770;-78
2022/06/05 05:44:59;;;;;;;21.90;16.88;;;;;;;16.32;68.19;101788.94;4954351;28;119897;-77
2022/06/05 05:47:28;;;;;;;24.63;17.25;;;;;;;16.37;68.49;101777.28;4954645;28;119326;-78
2022/06/05 05:49:56;;;;;;;22.17;17.20;;;;;;;16.46;68.33;101788.31;4940690;28;120459;-77
2022/06/05 05:52:23;;;;;;;25.25;17.75;;;;;;;16.56;67.96;101792.63;4937193;28;120016;-77
2022/06/05 05:54:48;;;;;;;23.13;17.90;;;;;;;16.57;67.92;101777.56;4920629;28;119837;-78
2022/06/05 05:57:14;;;;;;;21.30;17.58;;;;;;;16.64;67.64;101770.91;4917647;28;119908;-78
2022/06/05 05:59:40;;;;;;;24.58;16.90;;;;;;;16.66;67.72;101768.47;4918375;28;119517;-78
2022/06/05 06:02:11;;;;;;;21.42;15.77;;;;;;;16.81;67.75;101785.97;4917949;28;119739;-78
2022/06/05 06:04:38;;;;;;;19.80;16.42;;;;;;;16.91;67.96;101791.47;4934291;28;119254;-78
2022/06/05 06:07:04;;;;;;;21.65;16.80;;;;;;;16.95;67.56;101783.75;4941258;28;119310;-78
2022/06/05 06:09:29;;;;;;;20.10;15.77;;;;;;;17.03;67.49;101785.72;4954417;28;119553;-78
2022/06/05 06:11:55;;;;;;;21.35;15.05;;;;;;;17.06;67.42;101781.25;4958176;28;119915;-78
2022/06/05 06:14:21;;;;;;;20.95;15.15;;;;;;;17.15;67.18;101781.97;4953076;28;119479;-79
2022/06/05 06:16:47;;;;;;;22.77;15.52;;;;;;;17.21;67.02;101778.56;4953620;28;119270;-78
2022/06/05 06:19:13;;;;;;;18.20;13.50;;;;;;;17.24;66.88;101783.16;4954081;28;119295;-78
2022/06/05 06:21:38;;;;;;;19.20;12.45;;;;;;;17.29;66.22;101780.53;4954195;28;119657;-78
2022/06/05 06:24:04;;;;;;;18.95;13.70;;;;;;;17.35;66.52;101783.44;4951863;28;120893;-77
2022/06/05 06:26:30;;;;;;;23.80;12.93;;;;;;;17.41;66.56;101782.31;4936719;28;119416;-78
2022/06/05 06:28:56;;;;;;;17.50;12.30;;;;;;;17.46;66.66;101789.97;4954269;28;119291;-78
2022/06/05 06:31:22;;;;;;;15.32;11.60;;;;;;;17.52;66.57;101797.66;4916072;28;123192;-77
2022/06/05 06:33:48;;;;;;;17.95;11.60;;;;;;;17.56;66.58;101798.25;4920922;28;119426;-77
2022/06/05 06:36:15;;;;;;;18.35;12.05;;;;;;;17.58;66.43;101791.00;4915805;28;120328;-79
2022/06/05 06:38:41;;;;;;;17.40;13.23;;;;;;;17.63;66.37;101801.44;4928850;28;119386;-77
2022/06/05 06:41:13;;;;;;;19.52;13.30;;;;;;;17.66;66.31;101806.03;4952421;28;119422;-77
2022/06/05 06:43:41;;;;;;;17.15;11.77;;;;;;;17.69;66.58;101815.44;4958868;28;119743;-78
2022/06/05 06:46:07;;;;;;;19.25;12.77;;;;;;;17.72;66.00;101806.19;4936040;28;119777;-78
2022/06/05 06:48:34;;;;;;;19.73;13.75;;;;;;;17.73;65.84;101810.47;4953431;28;119761;-77
2022/06/05 06:51:03;;;;;;;17.15;12.50;;;;;;;17.73;65.49;101807.72;4935620;28;120898;-78
2022/06/05 06:53:30;;;;;;;19.27;13.20;;;;;;;17.82;65.46;101809.66;4957369;28;119691;-77
2022/06/05 06:55:57;;;;;;;18.40;12.68;;;;;;;17.85;65.25;101801.16;4935702;28;120419;-79
2022/06/05 06:58:23;;;;;;;19.88;13.57;;;;;;;17.86;65.11;101802.69;4953545;28;119614;-78
2022/06/05 07:00:49;;;;;;;14.23;11.98;;;;;;;17.90;65.18;101799.72;4953173;28;119754;-78
2022/06/05 07:03:15;;;;;;;20.95;13.60;;;;;;;17.93;65.14;101790.44;4952552;28;120248;-77
2022/06/05 07:05:41;;;;;;;18.98;12.70;;;;;;;17.95;64.79;101785.19;4953086;28;119379;-77
2022/06/05 07:08:09;;;;;;;19.25;13.13;;;;;;;17.94;64.72;101791.97;4935544;28;121020;-78
2022/06/05 07:10:36;;;;;;;18.27;13.02;;;;;;;18.02;64.92;101793.16;4952598;28;119792;-78
2022/06/05 07:13:02;;;;;;;18.30;13.82;;;;;;;18.01;64.40;101791.63;4953062;28;119685;-78
2022/06/05 07:15:33;;;;;;;19.40;12.77;;;;;;;18.07;63.88;101784.19;4956584;28;119474;-77
2022/06/05 07:18:07;;;;;;;18.08;12.25;;;;;;;18.05;64.10;101779.09;4935893;28;119710;-78
2022/06/05 07:20:37;;;;;;;14.90;10.77;;;;;;;18.18;64.17;101784.38;4919375;28;119873;-78
2022/06/05 07:23:03;;;;;;;15.98;11.70;;;;;;;18.23;64.05;101782.97;4934408;28;119939;-78
2022/06/05 07:25:30;;;;;;;16.08;11.05;;;;;;;18.23;63.94;101785.75;4915709;28;119484;-77
2022/06/05 07:27:56;;;;;;;13.10;11.35;;;;;;;18.31;64.04;101790.44;4933642;28;119311;-78
2022/06/05 07:30:22;;;;;;;15.20;11.30;;;;;;;18.35;63.75;101790.25;4915111;28;120823;-78
2022/06/05 07:32:48;;;;;;;14.40;10.75;;;;;;;18.40;63.36;101781.22;4915810;28;119624;-78
2022/06/05 07:35:15;;;;;;;15.13;10.45;;;;;;;18.48;62.25;101781.66;4916827;28;120987;-78
2022/06/05 07:37:41;;;;;;;13.63;9.90;;;;;;;18.57;62.13;101768.41;4905970;28;122144;-78
2022/06/05 07:40:07;;;;;;;13.43;10.10;;;;;;;18.64;62.32;101761.72;4935564;28;119837;-78
2022/06/05 07:42:38;;;;;;;12.73;9.43;;;;;;;18.72;62.35;101765.66;4952073;28;120563;-77
2022/06/05 07:45:05;;;;;;;13.60;9.90;;;;;;;18.79;62.58;101761.72;4952642;28;119541;-79
2022/06/05 07:47:31;;;;;;;14.32;10.05;;;;;;;18.83;62.93;101763.03;4935135;28;119882;-78
2022/06/05 07:49:57;;;;;;;13.73;10.43;;;;;;;18.92;62.76;101757.34;4934792;28;122039;-78
2022/06/05 07:55:09;;;;;;;11.38;8.73;;;;;;;19.09;61.26;101757.63;4952852;28;120042;-79
2022/06/05 07:57:35;;;;;;;11.55;7.95;;;;;;;19.21;60.32;101756.53;4951935;28;119771;-77
2022/06/05 08:00:00;;;;;;;12.05;7.60;;;;;;;19.32;59.50;101764.25;4956276;28;119398;-78
2022/06/05 08:02:28;;;;;;;12.07;7.60;;;;;;;19.45;60.04;101761.91;4951209;28;120165;-78
2022/06/05 08:04:55;;;;;;;10.05;6.72;;;;;;;19.55;58.40;101752.19;4952230;28;119807;-78
2022/06/05 08:07:24;;;;;;;9.10;7.07;;;;;;;19.70;59.32;101759.72;4934379;28;121157;-77
2022/06/05 08:09:52;;;;;;;9.88;6.90;;;;;;;19.82;59.27;101755.78;4934127;28;120023;-78
2022/06/05 08:12:20;;;;;;;11.40;7.32;;;;;;;19.94;59.67;101751.91;4951568;28;119401;-79
2022/06/05 08:14:49;;;;;;;10.88;7.72;;;;;;;20.06;58.95;101747.19;4918214;28;119333;-78
2022/06/05 08:17:21;;;;;;;10.70;6.13;;;;;;;20.17;57.04;101752.88;4951654;28;119803;-78
2022/06/05 08:19:47;;;;;;;12.18;6.07;;;;;;;20.30;56.05;101744.91;4934242;28;119689;-79
2022/06/05 08:22:16;;;;;;;7.97;6.60;;;;;;;20.41;56.93;101736.69;4937935;28;119511;-78
2022/06/05 08:24:42;;;;;;;8.90;6.47;;;;;;;20.44;57.27;101732.91;4951559;28;119616;-78
2022/06/05 08:27:10;;;;;;;10.55;6.50;;;;;;;20.52;57.86;101733.22;4934621;28;119604;-78
2022/06/05 08:29:37;;;;;;;11.40;6.68;;;;;;;20.66;57.79;101737.13;4933284;28;120026;-77
2022/06/05 08:32:04;;;;;;;11.00;6.60;;;;;;;20.77;57.12;101737.97;4917529;28;119845;-79
2022/06/05 08:34:30;;;;;;;9.05;6.10;;;;;;;20.86;56.32;101716.75;4951400;28;120180;-77
2022/06/05 08:42:37;;;;;;;;;;;;;;;21.07;54.81;101723.72;4933893;28;120895;-79
2022/06/05 08:45:12;;;;;;;8.60;5.68;;;;;;;21.12;54.60;101717.41;4954882;28;119918;-78
2022/06/05 08:47:52;;;;;;;6.85;5.10;;;;;;;21.27;52.30;101718.00;4954488;28;119825;-77
2022/06/05 08:50:34;;;;;;;8.98;5.55;;;;;;;21.35;53.59;101721.84;4935662;28;119710;-79
2022/06/05 08:53:10;;;;;;;6.40;5.10;;;;;;;21.48;54.49;101720.63;4944112;28;119583;-81
2022/06/05 08:55:41;;;;;;;8.23;5.50;;;;;;;21.58;55.17;101717.13;4936311;28;119444;-80
2022/06/05 08:58:23;;;;;;;8.10;5.72;;;;;;;21.69;55.50;101713.59;4920049;28;120498;-80
2022/06/05 09:01:00;;;;;;;9.27;5.95;;;;;;;21.79;54.38;101708.56;4955376;28;119906;-79
2022/06/05 09:03:36;;;;;;;8.00;5.70;;;;;;;21.86;54.18;101706.03;4950954;28;119717;-80
2022/06/05 09:06:10;;;;;;;7.55;5.10;;;;;;;21.87;52.79;101707.56;4955571;28;119576;-80
2022/06/05 09:08:40;;;;;;;7.05;5.22;;;;;;;21.89;51.19;101701.47;4953192;28;119398;-79
2022/06/05 09:11:14;;;;;;;7.85;4.60;;;;;;;21.90;51.00;101698.16;4947116;28;119805;-80
2022/06/05 09:13:55;;;;;;;9.07;5.05;;;;;;;21.96;52.20;101695.38;4968076;28;119785;-79
2022/06/05 09:16:37;;;;;;;7.65;5.38;;;;;;;21.99;51.06;101692.31;4928632;28;119673;-78
2022/06/05 09:19:04;;;;;;;8.20;5.38;;;;;;;21.99;51.92;101689.53;4948240;28;120287;-79
2022/06/05 09:21:35;;;;;;;5.82;5.18;;;;;;;22.07;52.69;101692.63;4952919;28;119839;-78
2022/06/05 09:24:13;;;;;;;4.93;4.38;;;;;;;22.17;52.61;101685.50;4946879;28;120231;-79
2022/06/05 09:26:46;;;;;;;7.95;5.15;;;;;;;22.22;53.17;101686.78;4949128;28;119668;-80
2022/06/05 09:29:24;;;;;;;5.43;4.17;;;;;;;22.27;52.18;101688.84;4934390;28;119870;-79
2022/06/05 09:32:02;;;;;;;7.30;4.20;;;;;;;22.27;48.26;101670.03;4944432;28;119654;-79
2022/06/05 09:35:02;;;;;;;5.38;4.28;;;;;;;22.22;47.79;101672.81;4922151;28;120219;-80
2022/06/05 09:37:49;;;;;;;5.85;4.00;;;;;;;22.18;47.95;101663.91;4945077;28;121043;-79
2022/06/05 09:40:28;;;;;;;7.10;4.60;;;;;;;22.22;49.25;101658.84;4951599;28;119546;-80
2022/06/05 09:43:12;;;;;;;7.72;4.25;;;;;;;22.27;49.24;101660.88;4938996;28;119516;-79
2022/06/05 09:46:17;;;;;;;6.30;3.72;;;;;;;22.29;47.18;101653.50;4948766;28;119493;-79
2022/06/05 09:48:48;;;;;;;4.47;3.28;;;;;;;22.28;48.06;101659.63;4926701;28;120128;-79
2022/06/05 09:51:18;;;;;;;3.67;3.00;;;;;;;22.28;44.87;101649.19;4922405;28;119665;-79
2022/06/05 09:53:59;;;;;;;4.35;3.20;;;;;;;22.28;48.15;101649.19;4964989;28;119661;-79
2022/06/05 09:56:30;;;;;;;6.15;4.00;;;;;;;22.35;49.42;101647.91;4951284;28;120181;-78
2022/06/05 09:59:19;;;;;;;6.35;3.88;;;;;;;22.39;48.53;101633.69;4924248;28;120241;-79
2022/06/05 10:01:56;;;;;;;5.43;4.07;;;;;;;22.35;46.99;101626.31;4948221;28;120354;-79
2022/06/05 10:04:27;;;;;;;7.60;4.30;;;;;;;22.38;49.31;101621.72;4928411;28;119584;-79
2022/06/05 10:07:06;;;;;;;5.60;3.58;;;;;;;22.39;48.51;101619.69;4949076;28;119897;-79
2022/06/05 10:09:35;;;;;;;4.82;3.42;;;;;;;22.41;46.32;101626.31;4919947;28;121736;-78
2022/06/05 10:12:07;;;;;;;6.78;3.38;;;;;;;22.44;44.84;101630.88;4951698;28;119537;-79
2022/06/05 10:14:55;;;;;;;6.47;3.40;;;;;;;22.49;45.45;101627.31;4915565;28;119784;-79
2022/06/05 10:17:37;;;;;;;7.32;3.42;;;;;;;22.50;46.52;101622.50;4954423;28;120120;-79
2022/06/05 10:20:12;;;;;;;5.38;3.33;;;;;;;22.51;44.64;101633.16;4940893;28;119398;-78
2022/06/05 10:22:43;;;;;;;4.05;2.83;;;;;;;22.52;46.46;101625.53;4933142;28;119892;-78
2022/06/05 10:25:47;;;;;;;4.43;2.65;;;;;;;22.51;46.34;101613.59;4930518;28;120460;-79
2022/06/05 10:28:26;;;;;;;4.18;1.95;;;;;;;22.47;42.64;101618.66;4959228;28;119571;-79
2022/06/05 10:31:02;;;;;;;5.28;2.78;;;;;;;22.46;44.00;101611.53;4942094;28;120213;-79
2022/06/05 10:34:09;;;;;;;3.75;2.67;;;;;;;22.49;46.40;101604.19;4945591;28;119735;-79
2022/06/05 10:36:49;;;;;;;3.78;2.90;;;;;;;22.49;45.48;101588.19;4939566;28;120442;-78
2022/06/05 10:39:23;;;;;;;5.82;3.85;;;;;;;22.52;45.73;101586.41;4950880;28;120028;-79
2022/06/05 10:42:07;;;;;;;5.25;3.80;;;;;;;22.51;45.63;101582.06;4938834;28;119872;-78
2022/06/05 10:44:37;;;;;;;6.45;3.00;;;;;;;22.52;45.52;101575.97;4944073;28;120191;-78
2022/06/05 10:47:28;;;;;;;3.97;2.60;;;;;;;22.55;45.29;101569.34;4941669;28;119590;-78
2022/06/05 10:50:21;;;;;;;5.45;3.10;;;;;;;22.56;46.11;101565.28;4929897;28;119441;-78
2022/06/05 10:53:05;;;;;;;5.27;3.23;;;;;;;22.57;44.42;101546.47;4921950;28;119963;-78
2022/06/05 10:55:53;;;;;;;2.92;2.35;;;;;;;22.54;45.27;101559.44;4955894;28;119806;-79
2022/06/05 10:58:19;;;;;;;4.50;3.03;;;;;;;22.57;45.86;101554.84;4956201;28;119880;-78
2022/06/05 11:00:50;;;;;;;6.47;3.35;;;;;;;22.58;44.85;101545.94;4941838;28;120593;-79
2022/06/05 11:03:46;;;;;;;2.92;2.45;;;;;;;22.52;44.02;101524.88;4947904;28;119774;-78
2022/06/05 11:06:32;;;;;;;4.22;3.15;;;;;;;22.56;44.10;101534.53;4944059;28;119556;-78
2022/06/05 11:09:25;;;;;;;5.25;3.85;;;;;;;22.56;45.12;101530.97;4972509;28;119506;-78
2022/06/05 11:15:24;;;;;;;7.82;5.18;;;;;;;22.56;47.23;101547.75;4939556;28;120157;-78
2022/06/05 11:18:26;;;;;;;9.47;5.70;;;;;;;22.57;46.72;101544.44;4972277;28;119657;-79
2022/06/05 11:21:02;;;;;;;8.02;5.50;;;;;;;22.57;47.48;101552.81;4954234;28;119978;-79
2022/06/05 11:23:33;;;;;;;8.70;4.20;;;;;;;22.58;46.58;101545.94;4933870;28;122018;-79
2022/06/05 11:26:23;;;;;;;6.57;4.47;;;;;;;22.55;45.86;101546.97;4951951;28;119942;-78
2022/06/05 11:29:10;;;;;;;5.50;3.55;;;;;;;22.50;45.98;101538.63;4937788;28;119685;-79
2022/06/05 11:31:58;;;;;;;7.00;3.75;;;;;;;22.47;46.08;101529.19;4930643;28;119619;-79
2022/06/05 11:34:43;;;;;;;5.40;3.38;;;;;;;22.56;46.24;101534.53;4923913;28;120164;-79
2022/06/05 11:37:37;;;;;;;6.22;4.07;;;;;;;22.58;46.70;101531.22;4969317;28;119636;-79
2022/06/05 11:40:21;;;;;;;6.10;4.20;;;;;;;22.57;47.33;101533.25;4936004;28;120562;-78
2022/06/05 11:42:55;;;;;;;6.83;4.13;;;;;;;22.59;47.79;101533.50;4953449;28;119638;-79
2022/06/05 11:45:30;;;;;;;7.63;4.85;;;;;;;22.58;47.27;101526.38;4970534;28;120370;-78